createdAt,value
2018-10-01T00:00:52.260Z,49.10
2018-10-01T00:01:57.525Z,49.10
2018-10-01T00:03:02.727Z,49.00
2018-10-01T00:04:07.934Z,49.10
2018-10-01T00:05:13.209Z,49.00
2018-10-01T00:06:18.457Z,49.00
2018-10-01T00:07:23.623Z,49.00
2018-10-01T00:08:28.750Z,49.00
2018-10-01T00:09:34.028Z,49.00
2018-10-01T00:10:39.171Z,49.00
2018-10-01T00:11:44.336Z,49.00
2018-10-01T00:12:49.642Z,49.00
2018-10-01T00:13:54.672Z,49.00
2018-10-01T00:15:00.007Z,49.00
2018-10-01T00:16:05.263Z,49.00
2018-10-01T00:17:10.336Z,49.60
2018-10-01T00:18:15.527Z,49.00
2018-10-01T00:19:20.671Z,48.90
2018-10-01T00:20:25.826Z,49.00
2018-10-01T00:21:31.063Z,48.90
2018-10-01T00:22:36.259Z,49.20
2018-10-01T00:23:41.583Z,48.90
2018-10-01T00:24:47.042Z,48.90
2018-10-01T00:25:52.363Z,48.90
2018-10-01T00:26:57.711Z,48.90
2018-10-01T00:28:02.955Z,48.90
2018-10-01T00:29:08.247Z,48.90
2018-10-01T00:30:13.573Z,48.90
2018-10-01T00:31:18.700Z,48.90
2018-10-01T00:32:23.986Z,48.90
2018-10-01T00:33:29.099Z,48.90
2018-10-01T00:34:34.480Z,48.90
2018-10-01T00:35:39.847Z,48.90
2018-10-01T00:36:45.240Z,48.80
2018-10-01T00:37:50.511Z,48.80
2018-10-01T00:38:55.740Z,48.90
2018-10-01T00:40:00.949Z,48.90
2018-10-01T00:41:06.505Z,48.90
2018-10-01T00:42:11.611Z,48.90
2018-10-01T00:43:16.814Z,48.90
2018-10-01T00:44:22.051Z,48.90
2018-10-01T00:45:27.367Z,48.80
2018-10-01T00:46:32.531Z,48.90
2018-10-01T00:47:37.657Z,48.90
2018-10-01T00:48:42.885Z,48.90
2018-10-01T00:49:48.286Z,48.80
2018-10-01T00:50:53.446Z,48.90
2018-10-01T00:51:58.718Z,48.90
2018-10-01T00:53:03.943Z,49.00
2018-10-01T00:54:09.173Z,49.10
2018-10-01T00:55:14.363Z,49.10
2018-10-01T00:56:19.571Z,49.10
2018-10-01T00:57:24.862Z,49.10
2018-10-01T00:58:30.154Z,49.10
2018-10-01T00:59:35.430Z,49.10
2018-10-01T01:00:40.817Z,49.00
2018-10-01T01:01:45.938Z,49.00
2018-10-01T01:02:51.241Z,49.00
2018-10-01T01:03:56.552Z,49.00
2018-10-01T01:05:01.882Z,49.00
2018-10-01T01:06:07.174Z,49.00
2018-10-01T01:07:12.272Z,49.00
2018-10-01T01:08:17.565Z,49.00
2018-10-01T01:09:22.814Z,49.00
2018-10-01T01:10:28.022Z,48.90
2018-10-01T01:11:33.352Z,48.90
2018-10-01T01:12:38.474Z,48.90
2018-10-01T01:13:43.473Z,48.90
2018-10-01T01:14:48.634Z,48.90
2018-10-01T01:15:53.857Z,48.90
2018-10-01T01:16:59.133Z,48.90
2018-10-01T01:18:04.132Z,48.90
2018-10-01T01:19:09.431Z,48.90
2018-10-01T01:20:14.536Z,48.90
2018-10-01T01:21:19.503Z,49.00
2018-10-01T01:22:24.627Z,48.90
2018-10-01T01:23:29.900Z,48.90
2018-10-01T01:24:35.250Z,49.00
2018-10-01T01:25:40.521Z,48.90
2018-10-01T01:26:45.823Z,48.90
2018-10-01T01:27:50.990Z,48.90
2018-10-01T01:28:56.221Z,49.00
2018-10-01T01:30:01.594Z,48.90
2018-10-01T01:31:06.865Z,48.90
2018-10-01T01:32:12.014Z,48.90
2018-10-01T01:33:17.284Z,48.90
2018-10-01T01:34:22.612Z,48.90
2018-10-01T01:35:27.754Z,49.60
2018-10-01T01:36:33.136Z,48.90
2018-10-01T01:37:38.614Z,48.90
2018-10-01T01:38:43.878Z,48.90
2018-10-01T01:39:49.258Z,48.90
2018-10-01T01:40:54.609Z,48.90
2018-10-01T01:41:59.790Z,48.90
2018-10-01T01:43:05.043Z,48.90
2018-10-01T01:44:10.366Z,48.90
2018-10-01T01:45:15.757Z,48.90
2018-10-01T01:46:21.092Z,48.90
2018-10-01T01:47:26.353Z,48.90
2018-10-01T01:48:31.578Z,48.90
2018-10-01T01:49:36.802Z,48.90
2018-10-01T01:50:42.091Z,48.90
2018-10-01T01:51:47.428Z,48.90
2018-10-01T01:52:52.655Z,48.90
2018-10-01T01:53:57.950Z,49.00
2018-10-01T01:55:03.363Z,48.90
2018-10-01T01:56:08.675Z,48.90
2018-10-01T01:57:13.886Z,48.90
2018-10-01T01:58:19.173Z,48.90
2018-10-01T01:59:24.477Z,49.00
2018-10-01T02:00:29.771Z,49.00
2018-10-01T02:01:35.085Z,48.90
2018-10-01T02:02:40.397Z,49.00
2018-10-01T02:03:45.582Z,48.90
2018-10-01T02:04:50.857Z,48.90
2018-10-01T02:05:56.246Z,49.00
2018-10-01T02:07:01.619Z,48.90
2018-10-01T02:08:06.784Z,48.90
2018-10-01T02:09:11.912Z,48.90
2018-10-01T02:10:17.055Z,48.90
2018-10-01T02:11:22.331Z,48.90
2018-10-01T02:12:27.490Z,48.90
2018-10-01T02:13:32.662Z,49.00
2018-10-01T02:14:37.952Z,49.00
2018-10-01T02:15:43.242Z,49.00
2018-10-01T02:16:48.562Z,49.00
2018-10-01T02:17:53.743Z,48.80
2018-10-01T02:18:58.997Z,49.00
2018-10-01T02:20:04.336Z,49.00
2018-10-01T02:21:09.674Z,49.00
2018-10-01T02:22:14.932Z,48.90
2018-10-01T02:23:20.188Z,48.90
2018-10-01T02:24:25.449Z,48.90
2018-10-01T02:25:30.613Z,48.90
2018-10-01T02:26:35.838Z,49.00
2018-10-01T02:27:41.133Z,48.90
2018-10-01T02:28:46.447Z,48.90
2018-10-01T02:29:51.595Z,48.90
2018-10-01T02:30:56.847Z,48.90
2018-10-01T02:32:02.134Z,48.90
2018-10-01T02:33:07.509Z,48.80
2018-10-01T02:34:12.606Z,48.90
2018-10-01T02:35:17.720Z,48.90
2018-10-01T02:36:22.929Z,48.90
2018-10-01T02:37:28.075Z,48.90
2018-10-01T02:38:33.294Z,48.90
2018-10-01T02:39:38.544Z,48.90
2018-10-01T02:40:43.677Z,48.90
2018-10-01T02:41:48.955Z,48.90
2018-10-01T02:42:54.335Z,48.90
2018-10-01T02:43:59.445Z,48.90
2018-10-01T02:45:04.744Z,48.90
2018-10-01T02:46:10.059Z,48.90
2018-10-01T02:47:15.726Z,48.90
2018-10-01T02:48:20.937Z,48.90
2018-10-01T02:49:26.120Z,48.90
2018-10-01T02:50:31.412Z,48.90
2018-10-01T02:51:36.754Z,48.90
2018-10-01T02:52:41.956Z,48.90
2018-10-01T02:53:47.269Z,48.90
2018-10-01T02:56:07.474Z,48.90
2018-10-01T02:57:12.615Z,48.90
2018-10-01T02:58:17.872Z,48.90
2018-10-01T02:59:23.929Z,48.90
2018-10-01T03:00:29.933Z,48.90
2018-10-01T03:01:50.803Z,48.90
2018-10-01T03:02:56.028Z,48.90
2018-10-01T03:04:01.224Z,48.90
2018-10-01T03:05:06.600Z,48.90
2018-10-01T03:06:11.746Z,48.90
2018-10-01T03:07:17.003Z,48.90
2018-10-01T03:08:22.182Z,48.90
2018-10-01T03:09:27.455Z,48.90
2018-10-01T03:10:32.681Z,48.80
2018-10-01T03:11:38.658Z,48.80
2018-10-01T03:12:43.792Z,48.80
2018-10-01T03:13:49.058Z,48.80
2018-10-01T03:14:54.305Z,48.80
2018-10-01T03:15:59.448Z,48.80
2018-10-01T03:19:07.911Z,48.80
2018-10-01T03:20:13.286Z,48.80
2018-10-01T03:21:18.929Z,48.80
2018-10-01T03:22:24.175Z,48.80
2018-10-01T03:23:29.520Z,48.80
2018-10-01T03:24:35.012Z,48.80
2018-10-01T03:25:40.515Z,48.80
2018-10-01T03:26:45.986Z,48.80
2018-10-01T03:27:51.429Z,48.70
2018-10-01T03:28:56.744Z,48.80
2018-10-01T03:30:02.196Z,48.80
2018-10-01T03:31:07.681Z,48.80
2018-10-01T03:32:13.017Z,48.80
2018-10-01T03:33:18.331Z,48.80
2018-10-01T03:34:23.631Z,48.70
2018-10-01T03:35:29.055Z,48.80
2018-10-01T03:36:34.429Z,48.60
2018-10-01T03:37:39.909Z,48.70
2018-10-01T03:38:45.232Z,48.70
2018-10-01T03:39:50.551Z,48.70
2018-10-01T03:40:55.821Z,48.70
2018-10-01T03:42:01.279Z,48.70
2018-10-01T03:43:06.570Z,48.70
2018-10-01T03:44:11.917Z,48.70
2018-10-01T03:45:17.357Z,48.70
2018-10-01T03:46:22.718Z,48.70
2018-10-01T03:47:28.059Z,48.70
2018-10-01T03:48:33.349Z,48.60
2018-10-01T03:49:38.641Z,48.60
2018-10-01T03:50:43.992Z,48.60
2018-10-01T03:51:49.338Z,48.60
2018-10-01T03:52:54.628Z,48.60
2018-10-01T03:53:59.970Z,48.60
2018-10-01T03:55:05.319Z,48.50
2018-10-01T03:56:10.585Z,48.60
2018-10-01T03:59:03.073Z,48.50
2018-10-01T04:00:08.364Z,48.40
2018-10-01T04:01:13.689Z,48.40
2018-10-01T04:02:19.082Z,48.40
2018-10-01T04:03:24.336Z,48.40
2018-10-01T04:04:29.481Z,48.40
2018-10-01T04:05:34.770Z,48.40
2018-10-01T04:06:40.072Z,48.40
2018-10-01T04:07:45.306Z,48.30
2018-10-01T04:08:50.739Z,48.30
2018-10-01T04:09:56.076Z,48.30
2018-10-01T04:11:01.378Z,48.30
2018-10-01T04:12:06.705Z,48.30
2018-10-01T04:13:12.014Z,48.30
2018-10-01T04:14:17.346Z,48.30
2018-10-01T04:15:22.599Z,48.30
2018-10-01T04:16:28.152Z,48.30
2018-10-01T04:17:33.601Z,48.30
2018-10-01T04:18:38.831Z,48.40
2018-10-01T04:19:44.040Z,48.50
2018-10-01T04:20:49.398Z,48.60
2018-10-01T04:21:54.608Z,48.60
2018-10-01T04:22:59.873Z,49.30
2018-10-01T04:24:05.182Z,48.70
2018-10-01T04:25:10.500Z,48.70
2018-10-01T04:26:15.881Z,48.70
2018-10-01T04:27:21.193Z,48.90
2018-10-01T04:28:26.555Z,48.90
2018-10-01T04:29:31.832Z,48.90
2018-10-01T04:30:37.144Z,48.90
2018-10-01T04:31:42.600Z,49.00
2018-10-01T04:32:47.690Z,48.90
2018-10-01T04:33:52.905Z,48.90
2018-10-01T04:34:58.262Z,49.10
2018-10-01T04:36:03.483Z,49.10
2018-10-01T04:37:08.593Z,49.00
2018-10-01T04:38:13.816Z,49.70
2018-10-01T04:39:19.139Z,49.10
2018-10-01T04:40:24.415Z,49.00
2018-10-01T04:41:29.661Z,49.10
2018-10-01T04:42:34.956Z,49.10
2018-10-01T04:43:40.224Z,49.00
2018-10-01T04:44:45.370Z,49.00
2018-10-01T04:45:50.744Z,49.00
2018-10-01T04:46:56.075Z,49.10
2018-10-01T04:48:01.150Z,49.10
2018-10-01T04:49:06.394Z,49.20
2018-10-01T04:50:11.704Z,49.20
2018-10-01T04:51:17.016Z,49.20
2018-10-01T04:52:22.385Z,49.20
2018-10-01T04:53:27.694Z,49.20
2018-10-01T04:54:33.028Z,49.30
2018-10-01T04:55:38.310Z,49.30
2018-10-01T04:56:43.555Z,49.40
2018-10-01T04:57:48.863Z,49.30
2018-10-01T04:58:54.132Z,49.30
2018-10-01T04:59:59.530Z,49.30
2018-10-01T05:01:04.827Z,49.40
2018-10-01T05:02:10.127Z,49.40
2018-10-01T05:03:15.441Z,49.60
2018-10-01T05:04:20.788Z,49.80
2018-10-01T05:05:26.120Z,50.00
2018-10-01T05:06:31.437Z,50.10
2018-10-01T05:07:36.709Z,50.20
2018-10-01T05:08:42.052Z,50.00
2018-10-01T05:09:47.339Z,50.30
2018-10-01T05:10:52.744Z,50.40
2018-10-01T05:11:58.116Z,50.30
2018-10-01T05:13:03.539Z,50.50
2018-10-01T05:14:08.961Z,50.70
2018-10-01T05:15:14.471Z,50.70
2018-10-01T05:16:19.801Z,50.80
2018-10-01T05:17:25.138Z,50.80
2018-10-01T05:18:30.466Z,50.90
2018-10-01T05:19:35.793Z,51.10
2018-10-01T05:20:41.124Z,51.00
2018-10-01T05:21:46.453Z,51.10
2018-10-01T05:22:51.727Z,51.10
2018-10-01T05:23:57.040Z,51.10
2018-10-01T05:25:02.412Z,51.30
2018-10-01T05:26:07.829Z,51.30
2018-10-01T05:27:13.432Z,51.30
2018-10-01T05:28:18.736Z,51.50
2018-10-01T05:29:24.064Z,51.40
2018-10-01T05:30:29.400Z,51.40
2018-10-01T05:31:34.755Z,51.50
2018-10-01T05:32:40.082Z,51.50
2018-10-01T05:33:45.392Z,51.50
2018-10-01T05:34:50.728Z,51.60
2018-10-01T05:35:56.058Z,51.70
2018-10-01T05:37:01.394Z,51.50
2018-10-01T05:38:06.807Z,51.50
2018-10-01T05:39:12.166Z,51.70
2018-10-01T05:40:17.466Z,51.60
2018-10-01T05:41:22.798Z,51.70
2018-10-01T05:42:28.130Z,51.70
2018-10-01T05:43:33.438Z,51.80
2018-10-01T05:44:38.773Z,51.80
2018-10-01T05:45:44.002Z,51.60
2018-10-01T05:46:49.437Z,51.90
2018-10-01T05:47:54.664Z,51.90
2018-10-01T05:48:59.957Z,51.90
2018-10-01T05:50:05.367Z,51.80
2018-10-01T05:51:10.764Z,51.80
2018-10-01T05:52:16.310Z,51.80
2018-10-01T05:53:21.521Z,51.90
2018-10-01T05:54:26.880Z,51.90
2018-10-01T05:55:32.353Z,51.90
2018-10-01T05:56:37.664Z,51.80
2018-10-01T05:57:43.182Z,51.80
2018-10-01T05:58:50.477Z,51.80
2018-10-01T05:59:55.711Z,51.80
2018-10-01T06:01:01.086Z,52.00
2018-10-01T06:02:06.578Z,52.00
2018-10-01T06:03:11.866Z,52.10
2018-10-01T06:04:17.236Z,51.90
2018-10-01T06:05:22.582Z,51.90
2018-10-01T06:06:27.916Z,51.80
2018-10-01T06:07:33.227Z,51.90
2018-10-01T06:08:38.603Z,51.90
2018-10-01T06:09:43.939Z,52.20
2018-10-01T06:10:49.264Z,52.20
2018-10-01T06:11:54.598Z,52.30
2018-10-01T06:12:59.865Z,52.30
2018-10-01T06:14:05.341Z,52.20
2018-10-01T06:15:10.758Z,52.30
2018-10-01T06:16:16.110Z,52.20
2018-10-01T06:17:21.553Z,52.20
2018-10-01T06:18:26.889Z,52.20
2018-10-01T06:19:32.189Z,52.00
2018-10-01T06:20:37.552Z,52.00
2018-10-01T06:21:42.884Z,51.90
2018-10-01T06:22:48.187Z,51.90
2018-10-01T06:23:53.511Z,51.80
2018-10-01T06:24:58.883Z,51.90
2018-10-01T06:26:04.199Z,51.90
2018-10-01T06:27:09.519Z,52.60
2018-10-01T06:28:14.879Z,51.90
2018-10-01T06:29:20.196Z,51.90
2018-10-01T06:30:25.532Z,51.90
2018-10-01T06:31:30.881Z,51.90
2018-10-01T06:32:36.224Z,52.00
2018-10-01T06:33:41.602Z,52.00
2018-10-01T06:34:46.871Z,51.80
2018-10-01T06:35:52.204Z,51.80
2018-10-01T06:36:57.641Z,51.80
2018-10-01T06:38:03.032Z,51.70
2018-10-01T06:39:08.413Z,51.80
2018-10-01T06:40:13.712Z,51.70
2018-10-01T06:41:19.083Z,51.70
2018-10-01T06:42:24.604Z,51.70
2018-10-01T06:43:29.994Z,51.70
2018-10-01T06:44:35.351Z,51.80
2018-10-01T06:45:40.692Z,51.80
2018-10-01T06:46:46.013Z,51.80
2018-10-01T06:47:51.406Z,51.80
2018-10-01T06:48:56.979Z,51.80
2018-10-01T06:50:02.291Z,51.70
2018-10-01T06:51:07.873Z,51.80
2018-10-01T06:52:13.431Z,51.80
2018-10-01T06:53:18.821Z,51.80
2018-10-01T06:54:24.185Z,51.80
2018-10-01T06:55:29.848Z,51.90
2018-10-01T06:56:35.686Z,51.90
2018-10-01T06:57:41.648Z,51.90
2018-10-01T06:58:47.424Z,51.80
2018-10-01T06:59:52.765Z,51.80
2018-10-01T07:00:58.180Z,51.90
2018-10-01T07:02:03.596Z,51.80
2018-10-01T07:03:08.962Z,51.80
2018-10-01T07:04:14.301Z,51.80
2018-10-01T07:05:19.745Z,51.70
2018-10-01T07:06:25.233Z,51.60
2018-10-01T07:07:30.905Z,51.50
2018-10-01T07:08:36.487Z,51.50
2018-10-01T07:09:41.906Z,51.60
2018-10-01T07:10:47.288Z,51.70
2018-10-01T07:11:52.832Z,51.70
2018-10-01T07:12:58.386Z,51.70
2018-10-01T07:14:04.092Z,51.70
2018-10-01T07:15:09.446Z,51.70
2018-10-01T07:16:14.932Z,51.80
2018-10-01T07:17:20.440Z,51.80
2018-10-01T07:18:26.116Z,52.00
2018-10-01T07:19:31.775Z,52.10
2018-10-01T07:20:37.222Z,52.20
2018-10-01T07:21:42.488Z,52.40
2018-10-01T07:22:47.857Z,52.60
2018-10-01T07:23:53.444Z,52.50
2018-10-01T07:24:58.857Z,52.50
2018-10-01T07:26:04.127Z,52.50
2018-10-01T07:27:09.558Z,52.60
2018-10-01T07:28:15.006Z,52.70
2018-10-01T07:29:20.351Z,52.60
2018-10-01T07:30:25.786Z,52.60
2018-10-01T07:31:31.074Z,52.50
2018-10-01T07:32:36.408Z,52.50
2018-10-01T07:33:41.735Z,52.30
2018-10-01T07:34:47.578Z,52.40
2018-10-01T07:35:52.917Z,52.40
2018-10-01T07:36:58.227Z,52.50
2018-10-01T07:38:03.543Z,52.30
2018-10-01T07:39:08.845Z,52.30
2018-10-01T07:40:14.119Z,52.20
2018-10-01T07:41:19.486Z,52.30
2018-10-01T07:42:24.885Z,52.20
2018-10-01T07:43:30.242Z,52.20
2018-10-01T07:44:35.518Z,52.10
2018-10-01T07:45:41.124Z,52.10
2018-10-01T07:46:46.694Z,52.10
2018-10-01T07:47:52.273Z,52.00
2018-10-01T07:48:57.724Z,51.90
2018-10-01T07:50:03.451Z,52.00
2018-10-01T07:51:09.095Z,51.90
2018-10-01T07:52:14.565Z,51.80
2018-10-01T07:53:21.175Z,51.70
2018-10-01T07:54:26.733Z,51.60
2018-10-01T07:55:32.162Z,51.60
2018-10-01T07:56:37.545Z,51.50
2018-10-01T07:57:42.860Z,51.50
2018-10-01T07:58:48.245Z,51.40
2018-10-01T07:59:53.691Z,51.40
2018-10-01T08:00:58.768Z,51.30
2018-10-01T08:02:04.152Z,51.30
2018-10-01T08:03:09.439Z,51.20
2018-10-01T08:04:14.797Z,51.20
2018-10-01T08:05:20.455Z,51.10
2018-10-01T08:06:25.777Z,51.10
2018-10-01T08:07:31.024Z,51.00
2018-10-01T08:08:36.446Z,51.00
2018-10-01T08:09:41.711Z,51.00
2018-10-01T08:10:46.943Z,50.80
2018-10-01T08:11:52.253Z,50.80
2018-10-01T08:12:57.758Z,50.70
2018-10-01T08:14:03.672Z,50.70
2018-10-01T08:15:08.951Z,50.70
2018-10-01T08:16:14.287Z,50.60
2018-10-01T08:17:19.520Z,50.50
2018-10-01T08:18:25.310Z,50.40
2018-10-01T08:19:30.906Z,50.40
2018-10-01T08:20:36.310Z,50.30
2018-10-01T08:21:41.539Z,50.30
2018-10-01T08:22:46.810Z,50.20
2018-10-01T08:23:52.130Z,50.20
2018-10-01T08:24:57.389Z,50.20
2018-10-01T08:26:02.784Z,50.20
2018-10-01T08:27:08.166Z,50.20
2018-10-01T08:28:13.478Z,50.10
2018-10-01T08:29:19.805Z,50.10
2018-10-01T08:30:25.018Z,50.10
2018-10-01T08:31:30.323Z,50.10
2018-10-01T08:32:35.833Z,50.30
2018-10-01T08:33:41.126Z,50.30
2018-10-01T08:34:46.502Z,50.30
2018-10-01T08:35:51.758Z,50.30
2018-10-01T08:36:57.066Z,50.40
2018-10-01T08:38:02.690Z,50.60
2018-10-01T08:39:07.933Z,50.60
2018-10-01T08:40:13.245Z,50.70
2018-10-01T08:41:18.578Z,50.50
2018-10-01T08:42:23.903Z,50.00
2018-10-01T08:43:29.327Z,50.00
2018-10-01T08:44:35.357Z,50.00
2018-10-01T08:45:40.779Z,50.00
2018-10-01T08:46:46.653Z,50.10
2018-10-01T08:47:51.886Z,50.10
2018-10-01T08:48:57.151Z,50.20
2018-10-01T08:50:02.653Z,50.30
2018-10-01T08:51:08.036Z,50.30
2018-10-01T08:52:13.341Z,50.30
2018-10-01T08:53:19.114Z,50.20
2018-10-01T08:54:24.417Z,50.10
2018-10-01T08:55:29.708Z,50.20
2018-10-01T08:56:35.068Z,50.10
2018-10-01T08:57:40.326Z,50.10
2018-10-01T08:58:45.783Z,50.10
2018-10-01T08:59:51.025Z,50.00
2018-10-01T09:00:56.457Z,50.20
2018-10-01T09:02:01.829Z,50.10
2018-10-01T09:03:07.307Z,50.20
2018-10-01T09:04:12.555Z,50.10
2018-10-01T09:05:17.939Z,50.10
2018-10-01T09:06:23.353Z,50.00
2018-10-01T09:07:28.721Z,50.00
2018-10-01T09:08:34.538Z,50.20
2018-10-01T09:09:39.881Z,50.20
2018-10-01T09:10:45.190Z,50.00
2018-10-01T09:11:50.540Z,49.90
2018-10-01T09:12:56.065Z,49.80
2018-10-01T09:14:01.516Z,49.70
2018-10-01T09:15:06.907Z,49.60
2018-10-01T09:16:12.216Z,49.40
2018-10-01T09:17:17.513Z,49.20
2018-10-01T09:18:22.815Z,49.20
2018-10-01T09:19:28.054Z,49.10
2018-10-01T09:20:33.643Z,49.10
2018-10-01T09:21:39.868Z,49.10
2018-10-01T09:22:45.682Z,49.00
2018-10-01T09:23:50.992Z,49.00
2018-10-01T09:24:56.366Z,49.00
2018-10-01T09:26:01.704Z,49.00
2018-10-01T09:27:07.110Z,49.00
2018-10-01T09:28:12.566Z,49.10
2018-10-01T09:29:17.947Z,49.00
2018-10-01T09:30:23.243Z,49.30
2018-10-01T09:31:28.563Z,49.20
2018-10-01T09:32:33.991Z,49.00
2018-10-01T09:33:39.268Z,48.90
2018-10-01T09:34:44.597Z,48.90
2018-10-01T09:35:49.807Z,48.90
2018-10-01T09:36:55.150Z,49.00
2018-10-01T09:38:00.462Z,48.80
2018-10-01T09:39:05.651Z,48.90
2018-10-01T09:40:10.988Z,49.00
2018-10-01T09:41:16.425Z,49.00
2018-10-01T09:42:21.725Z,49.10
2018-10-01T09:43:27.127Z,49.20
2018-10-01T09:44:32.577Z,49.40
2018-10-01T09:45:37.847Z,49.60
2018-10-01T09:46:43.134Z,49.80
2018-10-01T09:47:48.622Z,49.70
2018-10-01T09:48:53.865Z,49.80
2018-10-01T09:49:59.242Z,49.70
2018-10-01T09:51:04.675Z,49.70
2018-10-01T09:52:10.032Z,49.80
2018-10-01T09:53:15.297Z,49.80
2018-10-01T09:54:20.623Z,49.60
2018-10-01T09:55:26.141Z,49.70
2018-10-01T09:56:31.554Z,49.90
2018-10-01T09:57:36.910Z,50.20
2018-10-01T09:58:42.565Z,50.40
2018-10-01T09:59:48.083Z,50.60
2018-10-01T10:00:53.477Z,50.70
2018-10-01T10:01:58.824Z,50.80
2018-10-01T10:03:04.233Z,50.90
2018-10-01T10:04:09.678Z,51.50
2018-10-01T10:05:14.983Z,50.90
2018-10-01T10:06:20.541Z,50.90
2018-10-01T10:07:26.717Z,50.90
2018-10-01T10:08:32.743Z,50.90
2018-10-01T10:09:38.369Z,50.70
2018-10-01T10:10:43.627Z,50.60
2018-10-01T10:11:48.947Z,50.50
2018-10-01T10:12:54.371Z,50.50
2018-10-01T10:13:59.859Z,50.30
2018-10-01T10:15:05.277Z,50.30
2018-10-01T10:16:10.732Z,50.20
2018-10-01T10:17:15.971Z,50.10
2018-10-01T10:18:21.272Z,50.10
2018-10-01T10:19:26.674Z,50.00
2018-10-01T10:20:32.090Z,49.80
2018-10-01T10:21:38.106Z,49.70
2018-10-01T10:22:43.709Z,49.70
2018-10-01T10:23:49.265Z,49.80
2018-10-01T10:24:54.540Z,49.70
2018-10-01T10:25:59.861Z,49.70
2018-10-01T10:27:05.248Z,49.50
2018-10-01T10:28:10.630Z,49.40
2018-10-01T10:29:16.174Z,49.40
2018-10-01T10:30:21.576Z,49.30
2018-10-01T10:31:27.258Z,49.30
2018-10-01T10:32:32.613Z,49.40
2018-10-01T10:33:37.885Z,49.40
2018-10-01T10:34:43.211Z,49.30
2018-10-01T10:35:48.570Z,49.20
2018-10-01T10:36:53.902Z,49.20
2018-10-01T10:37:59.277Z,49.20
2018-10-01T10:39:04.457Z,49.30
2018-10-01T10:40:09.933Z,49.20
2018-10-01T10:41:15.292Z,49.20
2018-10-01T10:42:20.634Z,49.10
2018-10-01T10:43:25.954Z,49.80
2018-10-01T10:44:31.785Z,49.00
2018-10-01T10:45:37.177Z,49.60
2018-10-01T10:46:42.494Z,49.00
2018-10-01T10:47:47.853Z,49.00
2018-10-01T10:48:53.145Z,48.90
2018-10-01T10:49:58.563Z,48.90
2018-10-01T10:51:03.917Z,48.80
2018-10-01T10:52:09.266Z,48.70
2018-10-01T10:53:14.611Z,48.70
2018-10-01T10:54:20.026Z,48.70
2018-10-01T10:55:25.357Z,48.60
2018-10-01T10:56:30.780Z,48.50
2018-10-01T10:57:36.106Z,48.50
2018-10-01T10:58:41.495Z,48.50
2018-10-01T10:59:46.983Z,48.40
2018-10-01T11:00:52.284Z,48.30
2018-10-01T11:01:58.042Z,48.30
2018-10-01T11:03:03.293Z,48.30
2018-10-01T11:04:08.651Z,48.20
2018-10-01T11:05:14.158Z,48.10
2018-10-01T11:06:19.572Z,48.20
2018-10-01T11:07:24.852Z,48.00
2018-10-01T11:08:30.215Z,47.60
2018-10-01T11:09:35.412Z,47.40
2018-10-01T11:10:40.735Z,46.90
2018-10-01T11:11:46.045Z,46.70
2018-10-01T11:12:51.332Z,46.40
2018-10-01T11:13:56.661Z,46.10
2018-10-01T11:15:02.259Z,46.20
2018-10-01T11:16:07.345Z,46.20
2018-10-01T11:17:12.744Z,46.10
2018-10-01T11:18:18.171Z,46.20
2018-10-01T11:19:23.631Z,46.50
2018-10-01T11:20:28.925Z,46.90
2018-10-01T11:21:34.335Z,47.60
2018-10-01T11:22:39.606Z,47.80
2018-10-01T11:23:44.922Z,47.90
2018-10-01T11:24:50.247Z,47.90
2018-10-01T11:25:55.512Z,48.10
2018-10-01T11:27:00.976Z,48.10
2018-10-01T11:28:06.304Z,48.20
2018-10-01T11:29:11.795Z,48.30
2018-10-01T11:30:17.037Z,48.40
2018-10-01T11:31:22.706Z,48.60
2018-10-01T11:32:27.977Z,48.70
2018-10-01T11:33:33.432Z,48.80
2018-10-01T11:34:38.940Z,48.90
2018-10-01T11:35:44.302Z,49.00
2018-10-01T11:36:49.687Z,49.00
2018-10-01T11:37:55.348Z,49.00
2018-10-01T11:39:00.879Z,49.10
2018-10-01T11:40:06.261Z,49.20
2018-10-01T11:41:12.592Z,49.40
2018-10-01T11:42:18.030Z,49.50
2018-10-01T11:43:28.965Z,49.50
2018-10-01T11:44:34.797Z,49.60
2018-10-01T11:45:40.402Z,49.60
2018-10-01T11:46:45.643Z,49.70
2018-10-01T11:47:50.924Z,49.70
2018-10-01T11:48:56.208Z,49.70
2018-10-01T11:50:01.601Z,49.90
2018-10-01T11:51:06.939Z,49.80
2018-10-01T11:52:12.083Z,49.90
2018-10-01T11:53:17.380Z,49.90
2018-10-01T11:54:22.668Z,49.90
2018-10-01T11:55:27.973Z,50.00
2018-10-01T11:56:33.301Z,50.00
2018-10-01T11:57:38.611Z,50.00
2018-10-01T11:58:44.354Z,50.00
2018-10-01T11:59:49.648Z,50.10
2018-10-01T12:00:54.954Z,50.10
2018-10-01T12:02:01.190Z,50.10
2018-10-01T12:03:06.591Z,50.20
2018-10-01T12:04:11.997Z,50.20
2018-10-01T12:05:17.256Z,50.20
2018-10-01T12:06:22.576Z,50.20
2018-10-01T12:07:27.883Z,50.30
2018-10-01T12:08:33.225Z,50.30
2018-10-01T12:09:38.705Z,50.30
2018-10-01T12:10:43.880Z,50.40
2018-10-01T12:11:49.132Z,50.40
2018-10-01T12:12:54.459Z,50.40
2018-10-01T12:13:59.605Z,50.40
2018-10-01T12:15:05.105Z,50.40
2018-10-01T12:16:10.447Z,50.40
2018-10-01T12:17:15.665Z,50.50
2018-10-01T12:18:20.955Z,50.40
2018-10-01T12:19:26.371Z,50.50
2018-10-01T12:20:31.668Z,50.50
2018-10-01T12:21:37.101Z,50.60
2018-10-01T12:22:42.306Z,50.50
2018-10-01T12:23:47.651Z,50.60
2018-10-01T12:24:52.889Z,50.60
2018-10-01T12:25:58.182Z,50.60
2018-10-01T12:27:03.538Z,50.80
2018-10-01T12:28:08.831Z,50.60
2018-10-01T12:29:14.109Z,50.60
2018-10-01T12:30:19.448Z,50.70
2018-10-01T12:31:24.671Z,50.70
2018-10-01T12:32:29.900Z,50.60
2018-10-01T12:33:35.331Z,50.70
2018-10-01T12:34:40.605Z,50.70
2018-10-01T12:35:45.878Z,50.70
2018-10-01T12:36:51.165Z,50.70
2018-10-01T12:37:56.432Z,50.70
2018-10-01T12:39:01.925Z,50.70
2018-10-01T12:40:07.204Z,50.70
2018-10-01T12:41:12.486Z,50.70
2018-10-01T12:42:17.706Z,50.80
2018-10-01T12:43:22.986Z,50.80
2018-10-01T12:44:28.373Z,51.50
2018-10-01T12:45:33.859Z,50.80
2018-10-01T12:46:39.193Z,50.80
2018-10-01T12:47:44.517Z,50.80
2018-10-01T12:48:49.787Z,50.80
2018-10-01T12:49:55.105Z,50.90
2018-10-01T12:51:00.550Z,50.90
2018-10-01T12:52:05.928Z,50.90
2018-10-01T12:53:11.276Z,50.90
2018-10-01T12:54:16.591Z,51.50
2018-10-01T12:55:21.840Z,50.90
2018-10-01T12:56:27.260Z,50.90
2018-10-01T12:57:32.665Z,50.90
2018-10-01T12:58:37.844Z,50.90
2018-10-01T12:59:43.148Z,50.90
2018-10-01T13:00:48.478Z,51.00
2018-10-01T13:01:53.783Z,50.90
2018-10-01T13:02:59.040Z,51.00
2018-10-01T13:04:04.532Z,51.00
2018-10-01T13:05:09.840Z,51.00
2018-10-01T13:06:15.257Z,51.60
2018-10-01T13:07:20.524Z,51.00
2018-10-01T13:08:25.799Z,51.00
2018-10-01T13:09:31.104Z,51.00
2018-10-01T13:10:36.399Z,51.00
2018-10-01T13:11:41.931Z,51.10
2018-10-01T13:12:47.332Z,51.30
2018-10-01T13:13:52.887Z,51.30
2018-10-01T13:14:58.201Z,51.50
2018-10-01T13:16:03.573Z,51.40
2018-10-01T13:17:08.861Z,51.30
2018-10-01T13:18:14.172Z,51.40
2018-10-01T13:19:19.481Z,51.30
2018-10-01T13:20:24.795Z,51.30
2018-10-01T13:21:30.193Z,51.30
2018-10-01T13:22:35.540Z,51.30
2018-10-01T13:23:40.850Z,51.20
2018-10-01T13:24:46.263Z,51.10
2018-10-01T13:25:51.493Z,51.20
2018-10-01T13:26:56.754Z,51.20
2018-10-01T13:28:02.136Z,51.10
2018-10-01T13:29:07.611Z,51.10
2018-10-01T13:30:12.950Z,51.10
2018-10-01T13:31:18.326Z,51.80
2018-10-01T13:32:23.575Z,51.10
2018-10-01T13:33:28.879Z,51.20
2018-10-01T13:34:34.268Z,51.20
2018-10-01T13:35:39.571Z,51.20
2018-10-01T13:36:45.039Z,51.30
2018-10-01T13:37:50.378Z,51.20
2018-10-01T13:38:55.647Z,51.30
2018-10-01T13:40:00.963Z,51.30
2018-10-01T13:41:06.293Z,51.30
2018-10-01T13:42:11.895Z,51.30
2018-10-01T13:43:17.217Z,51.30
2018-10-01T13:44:22.625Z,51.30
2018-10-01T13:45:27.844Z,51.30
2018-10-01T13:46:33.241Z,51.30
2018-10-01T13:47:38.551Z,52.00
2018-10-01T13:48:43.957Z,51.40
2018-10-01T13:49:49.223Z,51.30
2018-10-01T13:50:54.505Z,51.40
2018-10-01T13:51:59.714Z,51.40
2018-10-01T13:53:04.943Z,51.40
2018-10-01T13:54:10.418Z,51.50
2018-10-01T13:55:15.636Z,51.50
2018-10-01T13:56:20.991Z,51.50
2018-10-01T13:57:26.561Z,51.50
2018-10-01T13:58:31.913Z,51.50
2018-10-01T13:59:37.157Z,51.50
2018-10-01T14:00:42.471Z,51.50
2018-10-01T14:01:47.823Z,51.50
2018-10-01T14:02:53.049Z,51.50
2018-10-01T14:03:58.294Z,51.50
2018-10-01T14:05:03.601Z,51.50
2018-10-01T14:06:09.056Z,51.50
2018-10-01T14:07:14.281Z,51.50